sensor_id;sensor_type;location;lat;lon;timestamp;temperature;humidity
13944;DHT22;7044;53.286;8.534;2023-07-02T00:01:49;16.40;99.90
13944;DHT22;7044;53.286;8.534;2023-07-02T00:04:16;16.40;99.90
13944;DHT22;7044;53.286;8.534;2023-07-02T00:06:45;16.40;99.90
13944;DHT22;7044;53.286;8.534;2023-07-02T00:09:14;16.30;99.90
13944;DHT22;7044;53.286;8.534;2023-07-02T00:11:42;16.40;99.90
13944;DHT22;7044;53.286;8.534;2023-07-02T00:14:10;16.20;99.90
13944;DHT22;7044;53.286;8.534;2023-07-02T00:16:38;16.30;99.90
13944;DHT22;7044;53.286;8.534;2023-07-02T00:19:05;16.30;99.90
13944;DHT22;7044;53.286;8.534;2023-07-02T00:21:32;16.30;99.90
13944;DHT22;7044;53.286;8.534;2023-07-02T00:24:00;16.40;99.90
13944;DHT22;7044;53.286;8.534;2023-07-02T00:26:28;16.40;99.90
13944;DHT22;7044;53.286;8.534;2023-07-02T00:28:55;16.20;99.90
13944;DHT22;7044;53.286;8.534;2023-07-02T00:31:23;16.20;99.90
13944;DHT22;7044;53.286;8.534;2023-07-02T00:33:50;16.40;99.90
13944;DHT22;7044;53.286;8.534;2023-07-02T00:36:17;14.80;99.90
13944;DHT22;7044;53.286;8.534;2023-07-02T00:38:45;16.40;99.90
13944;DHT22;7044;53.286;8.534;2023-07-02T00:41:13;16.40;99.90
13944;DHT22;7044;53.286;8.534;2023-07-02T00:43:41;16.40;99.90
13944;DHT22;7044;53.286;8.534;2023-07-02T00:46:11;16.40;99.90
13944;DHT22;7044;53.286;8.534;2023-07-02T00:48:40;16.40;99.90
13944;DHT22;7044;53.286;8.534;2023-07-02T00:51:07;16.40;99.90
13944;DHT22;7044;53.286;8.534;2023-07-02T00:53:35;16.40;99.90
13944;DHT22;7044;53.286;8.534;2023-07-02T00:56:02;16.40;99.90
13944;DHT22;7044;53.286;8.534;2023-07-02T00:58:28;16.40;99.90
13944;DHT22;7044;53.286;8.534;2023-07-02T01:00:57;16.40;99.90
13944;DHT22;7044;53.286;8.534;2023-07-02T01:03:24;16.60;99.90
13944;DHT22;7044;53.286;8.534;2023-07-02T01:05:50;16.40;99.90
13944;DHT22;7044;53.286;8.534;2023-07-02T01:08:17;16.40;99.90
13944;DHT22;7044;53.286;8.534;2023-07-02T01:10:44;16.50;99.90
13944;DHT22;7044;53.286;8.534;2023-07-02T01:13:14;16.30;99.90
13944;DHT22;7044;53.286;8.534;2023-07-02T01:15:44;16.30;99.90
13944;DHT22;7044;53.286;8.534;2023-07-02T01:18:13;16.40;99.90
13944;DHT22;7044;53.286;8.534;2023-07-02T01:20:42;16.30;99.90
13944;DHT22;7044;53.286;8.534;2023-07-02T01:23:09;16.00;99.90
13944;DHT22;7044;53.286;8.534;2023-07-02T01:25:36;16.80;99.90
13944;DHT22;7044;53.286;8.534;2023-07-02T01:28:03;16.30;99.90
13944;DHT22;7044;53.286;8.534;2023-07-02T01:30:30;16.20;99.90
13944;DHT22;7044;53.286;8.534;2023-07-02T01:32:57;16.10;99.90
13944;DHT22;7044;53.286;8.534;2023-07-02T01:35:24;16.10;99.90
13944;DHT22;7044;53.286;8.534;2023-07-02T01:37:53;16.10;99.90
13944;DHT22;7044;53.286;8.534;2023-07-02T01:40:20;16.10;99.90
13944;DHT22;7044;53.286;8.534;2023-07-02T01:42:47;16.10;99.90
13944;DHT22;7044;53.286;8.534;2023-07-02T01:45:14;16.10;99.90
13944;DHT22;7044;53.286;8.534;2023-07-02T01:47:41;16.20;99.90
13944;DHT22;7044;53.286;8.534;2023-07-02T01:50:08;16.10;99.90
13944;DHT22;7044;53.286;8.534;2023-07-02T01:52:35;16.20;99.90
13944;DHT22;7044;53.286;8.534;2023-07-02T01:55:04;16.20;99.90
13944;DHT22;7044;53.286;8.534;2023-07-02T01:57:31;16.00;99.90
13944;DHT22;7044;53.286;8.534;2023-07-02T01:59:57;16.20;99.90
13944;DHT22;7044;53.286;8.534;2023-07-02T02:02:24;15.90;99.90
13944;DHT22;7044;53.286;8.534;2023-07-02T02:04:51;15.90;99.90
13944;DHT22;7044;53.286;8.534;2023-07-02T02:07:18;15.90;99.90
13944;DHT22;7044;53.286;8.534;2023-07-02T02:09:44;15.90;99.90
13944;DHT22;7044;53.286;8.534;2023-07-02T02:12:12;15.90;99.90
13944;DHT22;7044;53.286;8.534;2023-07-02T02:14:40;15.80;99.90
13944;DHT22;7044;53.286;8.534;2023-07-02T02:17:07;15.80;99.90
13944;DHT22;7044;53.286;8.534;2023-07-02T02:19:34;15.80;99.90
13944;DHT22;7044;53.286;8.534;2023-07-02T02:22:01;15.80;99.90
13944;DHT22;7044;53.286;8.534;2023-07-02T02:24:28;15.70;99.90
13944;DHT22;7044;53.286;8.534;2023-07-02T02:26:55;15.70;99.90
13944;DHT22;7044;53.286;8.534;2023-07-02T02:29:23;15.70;99.90
13944;DHT22;7044;53.286;8.534;2023-07-02T02:31:50;15.70;99.90
13944;DHT22;7044;53.286;8.534;2023-07-02T02:34:16;15.70;99.90
13944;DHT22;7044;53.286;8.534;2023-07-02T02:36:43;15.60;99.90
13944;DHT22;7044;53.286;8.534;2023-07-02T02:44:04;15.80;99.90
13944;DHT22;7044;53.286;8.534;2023-07-02T02:46:32;15.50;99.90
13944;DHT22;7044;53.286;8.534;2023-07-02T02:48:59;15.50;99.90
13944;DHT22;7044;53.286;8.534;2023-07-02T02:51:26;15.50;99.90
13944;DHT22;7044;53.286;8.534;2023-07-02T02:53:53;15.40;99.90
13944;DHT22;7044;53.286;8.534;2023-07-02T02:56:19;15.40;99.90
13944;DHT22;7044;53.286;8.534;2023-07-02T02:58:46;15.40;99.90
13944;DHT22;7044;53.286;8.534;2023-07-02T03:01:13;15.40;99.90
13944;DHT22;7044;53.286;8.534;2023-07-02T03:03:42;15.30;99.90
13944;DHT22;7044;53.286;8.534;2023-07-02T03:06:11;15.30;99.90
13944;DHT22;7044;53.286;8.534;2023-07-02T03:08:39;15.30;99.90
13944;DHT22;7044;53.286;8.534;2023-07-02T03:11:06;15.30;99.90
13944;DHT22;7044;53.286;8.534;2023-07-02T03:16:00;15.30;99.90
13944;DHT22;7044;53.286;8.534;2023-07-02T03:18:27;15.10;99.90
13944;DHT22;7044;53.286;8.534;2023-07-02T03:20:55;15.30;99.90
13944;DHT22;7044;53.286;8.534;2023-07-02T03:23:22;15.20;99.90
13944;DHT22;7044;53.286;8.534;2023-07-02T03:25:48;15.10;99.90
13944;DHT22;7044;53.286;8.534;2023-07-02T03:28:15;15.10;99.90
13944;DHT22;7044;53.286;8.534;2023-07-02T03:30:42;15.10;99.90
13944;DHT22;7044;53.286;8.534;2023-07-02T03:33:09;15.10;99.90
13944;DHT22;7044;53.286;8.534;2023-07-02T03:35:36;15.10;99.90
13944;DHT22;7044;53.286;8.534;2023-07-02T03:38:05;15.00;99.90
13944;DHT22;7044;53.286;8.534;2023-07-02T03:40:31;15.00;99.90
13944;DHT22;7044;53.286;8.534;2023-07-02T03:42:58;15.00;99.90
13944;DHT22;7044;53.286;8.534;2023-07-02T03:45:25;15.00;99.90
13944;DHT22;7044;53.286;8.534;2023-07-02T03:47:52;15.00;99.90
13944;DHT22;7044;53.286;8.534;2023-07-02T03:50:19;15.00;99.90
13944;DHT22;7044;53.286;8.534;2023-07-02T03:52:46;15.00;99.90
13944;DHT22;7044;53.286;8.534;2023-07-02T03:55:14;15.00;99.90
13944;DHT22;7044;53.286;8.534;2023-07-02T03:57:41;14.90;99.90
13944;DHT22;7044;53.286;8.534;2023-07-02T04:00:08;14.90;99.90
13944;DHT22;7044;53.286;8.534;2023-07-02T04:02:36;14.90;99.90
13944;DHT22;7044;53.286;8.534;2023-07-02T04:05:04;14.60;99.90
13944;DHT22;7044;53.286;8.534;2023-07-02T04:07:31;15.00;99.90
13944;DHT22;7044;53.286;8.534;2023-07-02T04:09:58;14.90;99.90
13944;DHT22;7044;53.286;8.534;2023-07-02T04:12:26;15.00;99.90
13944;DHT22;7044;53.286;8.534;2023-07-02T04:14:53;14.90;99.90
13944;DHT22;7044;53.286;8.534;2023-07-02T04:17:20;15.00;99.90
13944;DHT22;7044;53.286;8.534;2023-07-02T04:19:46;15.00;99.90
13944;DHT22;7044;53.286;8.534;2023-07-02T04:22:13;15.00;99.90
13944;DHT22;7044;53.286;8.534;2023-07-02T04:24:40;15.00;99.90
13944;DHT22;7044;53.286;8.534;2023-07-02T04:27:07;15.00;99.90
13944;DHT22;7044;53.286;8.534;2023-07-02T04:29:35;15.00;99.90
13944;DHT22;7044;53.286;8.534;2023-07-02T04:32:02;15.10;99.90
13944;DHT22;7044;53.286;8.534;2023-07-02T04:34:29;15.10;99.90
13944;DHT22;7044;53.286;8.534;2023-07-02T04:36:55;15.10;99.90
13944;DHT22;7044;53.286;8.534;2023-07-02T04:39:22;15.10;99.90
13944;DHT22;7044;53.286;8.534;2023-07-02T04:41:49;15.10;99.90
13944;DHT22;7044;53.286;8.534;2023-07-02T04:44:18;15.10;99.90
13944;DHT22;7044;53.286;8.534;2023-07-02T04:46:47;15.10;99.90
13944;DHT22;7044;53.286;8.534;2023-07-02T04:49:15;15.20;99.90
13944;DHT22;7044;53.286;8.534;2023-07-02T04:54:08;15.20;99.90
13944;DHT22;7044;53.286;8.534;2023-07-02T04:56:35;15.20;99.90
13944;DHT22;7044;53.286;8.534;2023-07-02T04:59:02;15.10;99.90
13944;DHT22;7044;53.286;8.534;2023-07-02T05:01:29;15.20;99.90
13944;DHT22;7044;53.286;8.534;2023-07-02T05:03:57;15.20;99.90
13944;DHT22;7044;53.286;8.534;2023-07-02T05:06:24;15.20;99.90
13944;DHT22;7044;53.286;8.534;2023-07-02T05:08:50;15.30;99.90
13944;DHT22;7044;53.286;8.534;2023-07-02T05:11:18;15.20;99.90
13944;DHT22;7044;53.286;8.534;2023-07-02T05:16:12;15.30;99.90
13944;DHT22;7044;53.286;8.534;2023-07-02T05:18:39;15.30;99.90
13944;DHT22;7044;53.286;8.534;2023-07-02T05:21:07;15.40;99.90
13944;DHT22;7044;53.286;8.534;2023-07-02T05:23:34;15.40;99.90
13944;DHT22;7044;53.286;8.534;2023-07-02T05:26:01;15.50;99.90
13944;DHT22;7044;53.286;8.534;2023-07-02T05:28:28;15.40;99.90
13944;DHT22;7044;53.286;8.534;2023-07-02T05:30:55;15.60;99.90
13944;DHT22;7044;53.286;8.534;2023-07-02T05:33:22;15.50;99.90
13944;DHT22;7044;53.286;8.534;2023-07-02T05:35:48;14.60;99.90
13944;DHT22;7044;53.286;8.534;2023-07-02T05:38:17;15.80;99.90
13944;DHT22;7044;53.286;8.534;2023-07-02T05:40:44;15.60;99.90
13944;DHT22;7044;53.286;8.534;2023-07-02T05:43:11;15.70;99.90
13944;DHT22;7044;53.286;8.534;2023-07-02T05:45:38;15.70;99.90
13944;DHT22;7044;53.286;8.534;2023-07-02T05:48:05;15.80;99.90
13944;DHT22;7044;53.286;8.534;2023-07-02T05:50:32;15.80;99.90
13944;DHT22;7044;53.286;8.534;2023-07-02T05:52:59;15.80;99.90
13944;DHT22;7044;53.286;8.534;2023-07-02T05:55:27;15.90;99.90
13944;DHT22;7044;53.286;8.534;2023-07-02T05:57:54;15.90;99.90
13944;DHT22;7044;53.286;8.534;2023-07-02T06:00:23;15.90;99.90
13944;DHT22;7044;53.286;8.534;2023-07-02T06:02:49;16.00;99.90
13944;DHT22;7044;53.286;8.534;2023-07-02T06:05:16;16.00;99.90
13944;DHT22;7044;53.286;8.534;2023-07-02T06:07:43;16.00;99.90
13944;DHT22;7044;53.286;8.534;2023-07-02T06:10:10;16.00;99.90
13944;DHT22;7044;53.286;8.534;2023-07-02T06:12:38;16.10;99.90
13944;DHT22;7044;53.286;8.534;2023-07-02T06:15:06;16.20;99.90
13944;DHT22;7044;53.286;8.534;2023-07-02T06:17:32;16.20;99.90
13944;DHT22;7044;53.286;8.534;2023-07-02T06:19:59;16.20;99.90
13944;DHT22;7044;53.286;8.534;2023-07-02T06:22:26;15.20;99.90
13944;DHT22;7044;53.286;8.534;2023-07-02T06:24:53;16.40;99.90
13944;DHT22;7044;53.286;8.534;2023-07-02T06:27:19;16.30;99.90
13944;DHT22;7044;53.286;8.534;2023-07-02T06:29:48;16.40;99.90
13944;DHT22;7044;53.286;8.534;2023-07-02T06:32:15;16.40;99.90
13944;DHT22;7044;53.286;8.534;2023-07-02T06:34:42;16.40;99.90
13944;DHT22;7044;53.286;8.534;2023-07-02T06:37:09;16.40;99.90
13944;DHT22;7044;53.286;8.534;2023-07-02T06:39:36;16.40;99.90
13944;DHT22;7044;53.286;8.534;2023-07-02T06:42:03;16.40;99.90
13944;DHT22;7044;53.286;8.534;2023-07-02T06:44:30;16.50;99.90
13944;DHT22;7044;53.286;8.534;2023-07-02T06:46:58;16.50;99.90
13944;DHT22;7044;53.286;8.534;2023-07-02T06:49:25;16.50;99.90
13944;DHT22;7044;53.286;8.534;2023-07-02T06:51:53;16.60;99.90
13944;DHT22;7044;53.286;8.534;2023-07-02T06:54:20;16.60;99.90
13944;DHT22;7044;53.286;8.534;2023-07-02T06:56:47;16.60;99.90
13944;DHT22;7044;53.286;8.534;2023-07-02T06:59:19;17.60;99.90
13944;DHT22;7044;53.286;8.534;2023-07-02T07:01:46;16.70;99.90
13944;DHT22;7044;53.286;8.534;2023-07-02T07:04:15;16.80;99.90
13944;DHT22;7044;53.286;8.534;2023-07-02T07:06:42;16.80;99.90
13944;DHT22;7044;53.286;8.534;2023-07-02T07:09:10;16.80;99.90
13944;DHT22;7044;53.286;8.534;2023-07-02T07:11:37;16.80;99.90
13944;DHT22;7044;53.286;8.534;2023-07-02T07:14:04;16.80;99.90
13944;DHT22;7044;53.286;8.534;2023-07-02T07:16:31;16.80;99.90
13944;DHT22;7044;53.286;8.534;2023-07-02T07:18:58;16.90;99.90
13944;DHT22;7044;53.286;8.534;2023-07-02T07:21:27;16.80;99.90
13944;DHT22;7044;53.286;8.534;2023-07-02T07:23:54;16.80;99.90
13944;DHT22;7044;53.286;8.534;2023-07-02T07:26:21;16.90;99.90
13944;DHT22;7044;53.286;8.534;2023-07-02T07:28:48;15.30;99.90
13944;DHT22;7044;53.286;8.534;2023-07-02T07:31:15;17.00;99.90
13944;DHT22;7044;53.286;8.534;2023-07-02T07:33:43;16.90;99.90
13944;DHT22;7044;53.286;8.534;2023-07-02T07:36:10;16.90;99.90
13944;DHT22;7044;53.286;8.534;2023-07-02T07:38:39;17.20;99.90
13944;DHT22;7044;53.286;8.534;2023-07-02T07:41:06;17.00;99.90
13944;DHT22;7044;53.286;8.534;2023-07-02T07:43:34;16.90;99.90
13944;DHT22;7044;53.286;8.534;2023-07-02T07:46:01;17.00;99.90
13944;DHT22;7044;53.286;8.534;2023-07-02T07:48:28;17.00;99.90
13944;DHT22;7044;53.286;8.534;2023-07-02T07:50:55;17.10;99.90
13944;DHT22;7044;53.286;8.534;2023-07-02T07:53:23;17.20;99.90
13944;DHT22;7044;53.286;8.534;2023-07-02T07:55:51;17.20;99.90
13944;DHT22;7044;53.286;8.534;2023-07-02T07:58:18;16.90;99.90
13944;DHT22;7044;53.286;8.534;2023-07-02T08:00:45;17.20;99.90
13944;DHT22;7044;53.286;8.534;2023-07-02T08:03:12;17.00;99.90
13944;DHT22;7044;53.286;8.534;2023-07-02T08:05:39;17.00;99.90
13944;DHT22;7044;53.286;8.534;2023-07-02T08:08:06;17.40;99.90
13944;DHT22;7044;53.286;8.534;2023-07-02T08:10:34;17.40;99.90
13944;DHT22;7044;53.286;8.534;2023-07-02T08:13:02;17.40;99.90
13944;DHT22;7044;53.286;8.534;2023-07-02T08:15:29;18.30;99.90
13944;DHT22;7044;53.286;8.534;2023-07-02T08:17:56;17.50;99.90
13944;DHT22;7044;53.286;8.534;2023-07-02T08:20:24;17.60;99.90
13944;DHT22;7044;53.286;8.534;2023-07-02T08:22:51;18.30;99.90
13944;DHT22;7044;53.286;8.534;2023-07-02T08:25:18;17.60;99.90
13944;DHT22;7044;53.286;8.534;2023-07-02T08:27:47;17.40;99.90
13944;DHT22;7044;53.286;8.534;2023-07-02T08:30:15;17.40;99.90
13944;DHT22;7044;53.286;8.534;2023-07-02T08:32:42;17.50;99.90
13944;DHT22;7044;53.286;8.534;2023-07-02T08:35:09;17.60;99.90
13944;DHT22;7044;53.286;8.534;2023-07-02T08:37:36;17.70;99.90
13944;DHT22;7044;53.286;8.534;2023-07-02T08:40:04;17.80;99.90
13944;DHT22;7044;53.286;8.534;2023-07-02T08:42:32;17.70;99.90
13944;DHT22;7044;53.286;8.534;2023-07-02T08:45:00;17.80;99.90
13944;DHT22;7044;53.286;8.534;2023-07-02T08:47:28;17.90;99.90
13944;DHT22;7044;53.286;8.534;2023-07-02T08:49:55;18.20;99.90
13944;DHT22;7044;53.286;8.534;2023-07-02T08:52:22;18.10;99.90
13944;DHT22;7044;53.286;8.534;2023-07-02T08:54:49;17.90;99.90
13944;DHT22;7044;53.286;8.534;2023-07-02T08:57:16;17.90;99.90
13944;DHT22;7044;53.286;8.534;2023-07-02T08:59:43;17.70;99.90
13944;DHT22;7044;53.286;8.534;2023-07-02T09:02:12;17.60;99.90
13944;DHT22;7044;53.286;8.534;2023-07-02T09:04:41;17.70;99.90
13944;DHT22;7044;53.286;8.534;2023-07-02T09:07:09;17.80;99.90
13944;DHT22;7044;53.286;8.534;2023-07-02T09:09:44;17.80;99.90
13944;DHT22;7044;53.286;8.534;2023-07-02T09:12:22;18.10;99.90
13944;DHT22;7044;53.286;8.534;2023-07-02T09:14:54;18.30;99.90
13944;DHT22;7044;53.286;8.534;2023-07-02T09:17:26;18.30;99.90
13944;DHT22;7044;53.286;8.534;2023-07-02T09:19:54;18.50;99.90
13944;DHT22;7044;53.286;8.534;2023-07-02T09:22:21;18.40;99.90
13944;DHT22;7044;53.286;8.534;2023-07-02T09:24:52;18.20;99.90
13944;DHT22;7044;53.286;8.534;2023-07-02T09:27:20;18.20;99.90
13944;DHT22;7044;53.286;8.534;2023-07-02T09:29:50;18.30;99.90
13944;DHT22;7044;53.286;8.534;2023-07-02T09:32:27;18.60;99.90
13944;DHT22;7044;53.286;8.534;2023-07-02T09:34:57;18.30;99.90
13944;DHT22;7044;53.286;8.534;2023-07-02T09:37:24;18.30;99.90
13944;DHT22;7044;53.286;8.534;2023-07-02T09:39:53;18.40;99.90
13944;DHT22;7044;53.286;8.534;2023-07-02T09:42:20;18.60;99.90
13944;DHT22;7044;53.286;8.534;2023-07-02T09:44:48;18.70;99.90
13944;DHT22;7044;53.286;8.534;2023-07-02T09:47:19;18.70;99.90
13944;DHT22;7044;53.286;8.534;2023-07-02T09:49:52;18.70;99.90
13944;DHT22;7044;53.286;8.534;2023-07-02T09:52:20;18.90;99.90
13944;DHT22;7044;53.286;8.534;2023-07-02T09:54:47;18.90;99.90
13944;DHT22;7044;53.286;8.534;2023-07-02T09:57:14;18.80;99.90
13944;DHT22;7044;53.286;8.534;2023-07-02T09:59:42;18.90;99.90
13944;DHT22;7044;53.286;8.534;2023-07-02T10:02:09;18.80;99.90
13944;DHT22;7044;53.286;8.534;2023-07-02T10:04:40;19.10;99.90
13944;DHT22;7044;53.286;8.534;2023-07-02T10:07:08;19.40;99.90
13944;DHT22;7044;53.286;8.534;2023-07-02T10:09:38;19.30;99.90
13944;DHT22;7044;53.286;8.534;2023-07-02T10:12:18;19.50;99.90
13944;DHT22;7044;53.286;8.534;2023-07-02T10:14:45;19.60;99.90
13944;DHT22;7044;53.286;8.534;2023-07-02T10:17:23;19.70;99.90
13944;DHT22;7044;53.286;8.534;2023-07-02T10:19:51;19.70;99.90
13944;DHT22;7044;53.286;8.534;2023-07-02T10:22:19;19.80;99.90
13944;DHT22;7044;53.286;8.534;2023-07-02T10:24:56;19.60;99.90
13944;DHT22;7044;53.286;8.534;2023-07-02T10:27:35;19.50;99.90
13944;DHT22;7044;53.286;8.534;2023-07-02T10:30:03;19.20;99.90
13944;DHT22;7044;53.286;8.534;2023-07-02T10:32:31;19.10;99.90
13944;DHT22;7044;53.286;8.534;2023-07-02T10:34:59;19.10;99.90
13944;DHT22;7044;53.286;8.534;2023-07-02T10:37:35;19.10;99.90
13944;DHT22;7044;53.286;8.534;2023-07-02T10:40:07;19.30;99.90
13944;DHT22;7044;53.286;8.534;2023-07-02T10:42:45;19.20;99.90
13944;DHT22;7044;53.286;8.534;2023-07-02T10:45:12;19.30;99.90
13944;DHT22;7044;53.286;8.534;2023-07-02T10:47:39;19.20;99.90
13944;DHT22;7044;53.286;8.534;2023-07-02T10:50:15;19.40;99.90
13944;DHT22;7044;53.286;8.534;2023-07-02T10:52:42;19.40;99.90
13944;DHT22;7044;53.286;8.534;2023-07-02T10:55:10;19.40;99.90
13944;DHT22;7044;53.286;8.534;2023-07-02T10:57:39;19.50;99.90
13944;DHT22;7044;53.286;8.534;2023-07-02T11:00:06;19.50;99.90
13944;DHT22;7044;53.286;8.534;2023-07-02T11:02:34;19.50;99.90
13944;DHT22;7044;53.286;8.534;2023-07-02T11:05:01;19.50;99.90
13944;DHT22;7044;53.286;8.534;2023-07-02T11:07:29;19.60;99.90
13944;DHT22;7044;53.286;8.534;2023-07-02T11:09:55;19.70;99.90
13944;DHT22;7044;53.286;8.534;2023-07-02T11:12:29;19.50;99.90
13944;DHT22;7044;53.286;8.534;2023-07-02T11:15:07;19.40;99.90
13944;DHT22;7044;53.286;8.534;2023-07-02T11:17:34;19.60;99.90
13944;DHT22;7044;53.286;8.534;2023-07-02T11:20:01;19.30;99.90
13944;DHT22;7044;53.286;8.534;2023-07-02T11:22:34;19.60;99.90
13944;DHT22;7044;53.286;8.534;2023-07-02T11:25:12;19.60;99.90
13944;DHT22;7044;53.286;8.534;2023-07-02T11:27:41;19.40;99.90
13944;DHT22;7044;53.286;8.534;2023-07-02T11:30:08;19.20;99.90
13944;DHT22;7044;53.286;8.534;2023-07-02T11:32:47;19.10;99.90
13944;DHT22;7044;53.286;8.534;2023-07-02T11:35:15;19.20;99.90
13944;DHT22;7044;53.286;8.534;2023-07-02T11:37:43;19.30;99.90
13944;DHT22;7044;53.286;8.534;2023-07-02T11:40:11;19.40;99.90
13944;DHT22;7044;53.286;8.534;2023-07-02T11:42:40;19.50;99.90
13944;DHT22;7044;53.286;8.534;2023-07-02T11:45:08;19.40;99.90
13944;DHT22;7044;53.286;8.534;2023-07-02T11:47:35;19.40;99.90
13944;DHT22;7044;53.286;8.534;2023-07-02T11:50:02;19.30;99.90
13944;DHT22;7044;53.286;8.534;2023-07-02T11:52:29;19.30;99.90
13944;DHT22;7044;53.286;8.534;2023-07-02T11:54:56;19.30;99.90
13944;DHT22;7044;53.286;8.534;2023-07-02T11:57:23;19.40;99.90
13944;DHT22;7044;53.286;8.534;2023-07-02T11:59:51;19.20;99.90
13944;DHT22;7044;53.286;8.534;2023-07-02T12:02:19;19.30;99.90
13944;DHT22;7044;53.286;8.534;2023-07-02T12:04:46;19.40;99.90
13944;DHT22;7044;53.286;8.534;2023-07-02T12:07:14;19.50;99.90
13944;DHT22;7044;53.286;8.534;2023-07-02T12:09:40;19.40;99.90
13944;DHT22;7044;53.286;8.534;2023-07-02T12:12:08;19.40;99.90
13944;DHT22;7044;53.286;8.534;2023-07-02T12:14:35;19.20;99.90
13944;DHT22;7044;53.286;8.534;2023-07-02T12:17:04;19.10;99.90
13944;DHT22;7044;53.286;8.534;2023-07-02T12:19:31;19.00;99.90
13944;DHT22;7044;53.286;8.534;2023-07-02T12:21:58;18.90;99.90
13944;DHT22;7044;53.286;8.534;2023-07-02T12:24:25;18.80;99.90
13944;DHT22;7044;53.286;8.534;2023-07-02T12:26:52;18.90;99.90
13944;DHT22;7044;53.286;8.534;2023-07-02T12:29:19;19.10;99.90
13944;DHT22;7044;53.286;8.534;2023-07-02T12:31:46;19.20;99.90
13944;DHT22;7044;53.286;8.534;2023-07-02T12:34:14;19.30;99.90
13944;DHT22;7044;53.286;8.534;2023-07-02T12:36:41;19.40;99.90
13944;DHT22;7044;53.286;8.534;2023-07-02T12:39:08;19.40;99.90
13944;DHT22;7044;53.286;8.534;2023-07-02T12:41:35;19.50;99.90
13944;DHT22;7044;53.286;8.534;2023-07-02T12:44:02;19.40;99.90
13944;DHT22;7044;53.286;8.534;2023-07-02T12:46:29;19.20;99.90
13944;DHT22;7044;53.286;8.534;2023-07-02T12:48:57;19.30;99.90
13944;DHT22;7044;53.286;8.534;2023-07-02T12:51:26;19.30;99.90
13944;DHT22;7044;53.286;8.534;2023-07-02T12:53:52;19.50;99.90
13944;DHT22;7044;53.286;8.534;2023-07-02T12:56:19;19.60;99.90
13944;DHT22;7044;53.286;8.534;2023-07-02T12:58:46;19.70;99.90
13944;DHT22;7044;53.286;8.534;2023-07-02T13:01:13;19.50;99.90
13944;DHT22;7044;53.286;8.534;2023-07-02T13:03:45;19.50;99.90
13944;DHT22;7044;53.286;8.534;2023-07-02T13:06:13;19.30;99.90
13944;DHT22;7044;53.286;8.534;2023-07-02T13:08:41;19.20;99.90
13944;DHT22;7044;53.286;8.534;2023-07-02T13:11:08;19.10;99.90
13944;DHT22;7044;53.286;8.534;2023-07-02T13:13:35;19.10;99.90
13944;DHT22;7044;53.286;8.534;2023-07-02T13:16:02;19.00;99.90
13944;DHT22;7044;53.286;8.534;2023-07-02T13:18:30;18.40;99.90
13944;DHT22;7044;53.286;8.534;2023-07-02T13:20:57;19.10;99.90
13944;DHT22;7044;53.286;8.534;2023-07-02T13:23:24;19.10;99.90
13944;DHT22;7044;53.286;8.534;2023-07-02T13:25:52;19.10;99.90
13944;DHT22;7044;53.286;8.534;2023-07-02T13:28:20;19.00;99.90
13944;DHT22;7044;53.286;8.534;2023-07-02T13:30:47;19.10;99.90
13944;DHT22;7044;53.286;8.534;2023-07-02T13:33:14;19.00;99.90
13944;DHT22;7044;53.286;8.534;2023-07-02T13:35:42;19.20;99.90
13944;DHT22;7044;53.286;8.534;2023-07-02T13:38:09;19.40;99.90
13944;DHT22;7044;53.286;8.534;2023-07-02T13:40:36;19.40;99.90
13944;DHT22;7044;53.286;8.534;2023-07-02T13:43:05;19.20;99.90
13944;DHT22;7044;53.286;8.534;2023-07-02T13:45:32;19.10;99.90
13944;DHT22;7044;53.286;8.534;2023-07-02T13:47:59;18.90;99.90
13944;DHT22;7044;53.286;8.534;2023-07-02T13:50:25;18.80;99.90
13944;DHT22;7044;53.286;8.534;2023-07-02T13:52:53;18.70;99.90
13944;DHT22;7044;53.286;8.534;2023-07-02T13:55:20;18.80;99.90
13944;DHT22;7044;53.286;8.534;2023-07-02T13:57:53;18.90;99.90
13944;DHT22;7044;53.286;8.534;2023-07-02T14:00:21;18.90;99.90
13944;DHT22;7044;53.286;8.534;2023-07-02T14:02:48;18.90;99.90
13944;DHT22;7044;53.286;8.534;2023-07-02T14:05:15;18.90;99.90
13944;DHT22;7044;53.286;8.534;2023-07-02T14:07:42;18.80;99.90
13944;DHT22;7044;53.286;8.534;2023-07-02T14:10:10;18.70;99.90
13944;DHT22;7044;53.286;8.534;2023-07-02T14:12:38;18.70;99.90
13944;DHT22;7044;53.286;8.534;2023-07-02T14:15:05;18.60;99.90
13944;DHT22;7044;53.286;8.534;2023-07-02T14:17:34;18.60;99.90
13944;DHT22;7044;53.286;8.534;2023-07-02T14:20:02;18.60;99.90
13944;DHT22;7044;53.286;8.534;2023-07-02T14:22:29;18.70;99.90
13944;DHT22;7044;53.286;8.534;2023-07-02T14:24:56;18.90;99.90
13944;DHT22;7044;53.286;8.534;2023-07-02T14:27:23;19.20;99.90
13944;DHT22;7044;53.286;8.534;2023-07-02T14:29:50;19.20;99.90
13944;DHT22;7044;53.286;8.534;2023-07-02T14:32:17;19.00;99.90
13944;DHT22;7044;53.286;8.534;2023-07-02T14:34:46;18.90;99.90
13944;DHT22;7044;53.286;8.534;2023-07-02T14:37:12;18.70;99.90
13944;DHT22;7044;53.286;8.534;2023-07-02T14:39:39;18.60;99.90
13944;DHT22;7044;53.286;8.534;2023-07-02T14:42:07;18.60;99.90
13944;DHT22;7044;53.286;8.534;2023-07-02T14:44:34;18.60;99.90
13944;DHT22;7044;53.286;8.534;2023-07-02T14:47:00;18.60;99.90
13944;DHT22;7044;53.286;8.534;2023-07-02T14:49:27;18.70;99.90
13944;DHT22;7044;53.286;8.534;2023-07-02T14:51:56;18.80;99.90
13944;DHT22;7044;53.286;8.534;2023-07-02T14:54:23;18.80;99.90
13944;DHT22;7044;53.286;8.534;2023-07-02T14:56:50;18.80;99.90
13944;DHT22;7044;53.286;8.534;2023-07-02T14:59:17;18.80;99.90
13944;DHT22;7044;53.286;8.534;2023-07-02T15:01:44;18.90;99.90
13944;DHT22;7044;53.286;8.534;2023-07-02T15:04:11;18.70;99.90
13944;DHT22;7044;53.286;8.534;2023-07-02T15:06:38;18.80;99.90
13944;DHT22;7044;53.286;8.534;2023-07-02T15:09:06;19.00;99.90
13944;DHT22;7044;53.286;8.534;2023-07-02T15:11:33;19.00;99.90
13944;DHT22;7044;53.286;8.534;2023-07-02T15:14:00;19.00;99.90
13944;DHT22;7044;53.286;8.534;2023-07-02T15:16:27;19.00;99.90
13944;DHT22;7044;53.286;8.534;2023-07-02T15:18:54;18.90;99.90
13944;DHT22;7044;53.286;8.534;2023-07-02T15:21:21;18.90;99.90
13944;DHT22;7044;53.286;8.534;2023-07-02T15:23:50;18.90;99.90
13944;DHT22;7044;53.286;8.534;2023-07-02T15:26:18;18.80;99.90
13944;DHT22;7044;53.286;8.534;2023-07-02T15:28:45;18.80;99.90
13944;DHT22;7044;53.286;8.534;2023-07-02T15:31:12;18.80;99.90
13944;DHT22;7044;53.286;8.534;2023-07-02T15:33:40;18.80;99.90
13944;DHT22;7044;53.286;8.534;2023-07-02T15:36:08;18.90;99.90
13944;DHT22;7044;53.286;8.534;2023-07-02T15:38:35;18.90;99.90
13944;DHT22;7044;53.286;8.534;2023-07-02T15:41:08;18.90;99.90
13944;DHT22;7044;53.286;8.534;2023-07-02T15:43:38;18.80;99.90
13944;DHT22;7044;53.286;8.534;2023-07-02T15:46:06;18.90;99.90
13944;DHT22;7044;53.286;8.534;2023-07-02T15:48:33;19.00;99.90
13944;DHT22;7044;53.286;8.534;2023-07-02T15:51:02;18.90;99.90
13944;DHT22;7044;53.286;8.534;2023-07-02T15:53:31;18.80;99.90
13944;DHT22;7044;53.286;8.534;2023-07-02T15:55:58;18.80;99.90
13944;DHT22;7044;53.286;8.534;2023-07-02T15:58:27;18.90;99.90
13944;DHT22;7044;53.286;8.534;2023-07-02T16:01:08;18.70;99.90